sensor_id;sensor_type;location;lat;lon;timestamp;temperature;humidity
35668;DHT22;22158;59.280;17.806;2022-10-31T00:00:21;3.00;99.90
35668;DHT22;22158;59.280;17.806;2022-10-31T00:02:46;3.00;99.90
35668;DHT22;22158;59.280;17.806;2022-10-31T00:05:12;3.00;99.90
35668;DHT22;22158;59.280;17.806;2022-10-31T00:07:38;3.00;99.90
35668;DHT22;22158;59.280;17.806;2022-10-31T00:10:04;3.00;99.90
35668;DHT22;22158;59.280;17.806;2022-10-31T00:12:30;2.90;99.90
35668;DHT22;22158;59.280;17.806;2022-10-31T00:14:56;2.90;99.90
35668;DHT22;22158;59.280;17.806;2022-10-31T00:17:21;2.90;99.90
35668;DHT22;22158;59.280;17.806;2022-10-31T00:19:47;3.00;99.90
35668;DHT22;22158;59.280;17.806;2022-10-31T00:22:12;3.00;99.90
35668;DHT22;22158;59.280;17.806;2022-10-31T00:24:38;3.00;99.90
35668;DHT22;22158;59.280;17.806;2022-10-31T00:27:04;3.00;99.90
35668;DHT22;22158;59.280;17.806;2022-10-31T00:29:29;3.00;99.90
35668;DHT22;22158;59.280;17.806;2022-10-31T00:31:55;3.00;99.90
35668;DHT22;22158;59.280;17.806;2022-10-31T00:34:20;3.00;99.90
35668;DHT22;22158;59.280;17.806;2022-10-31T00:36:46;3.00;99.90
35668;DHT22;22158;59.280;17.806;2022-10-31T00:39:12;3.00;99.90
35668;DHT22;22158;59.280;17.806;2022-10-31T00:41:37;3.00;99.90
35668;DHT22;22158;59.280;17.806;2022-10-31T00:44:03;2.90;99.90
35668;DHT22;22158;59.280;17.806;2022-10-31T00:46:29;2.90;99.90
35668;DHT22;22158;59.280;17.806;2022-10-31T00:48:54;2.90;99.90
35668;DHT22;22158;59.280;17.806;2022-10-31T00:51:20;2.90;99.90
35668;DHT22;22158;59.280;17.806;2022-10-31T00:53:45;2.90;99.90
35668;DHT22;22158;59.280;17.806;2022-10-31T00:56:11;2.90;99.90
35668;DHT22;22158;59.280;17.806;2022-10-31T00:58:37;2.90;99.90
35668;DHT22;22158;59.280;17.806;2022-10-31T01:01:04;2.90;99.90
35668;DHT22;22158;59.280;17.806;2022-10-31T01:03:31;2.80;99.90
35668;DHT22;22158;59.280;17.806;2022-10-31T01:05:58;2.80;99.90
35668;DHT22;22158;59.280;17.806;2022-10-31T01:08:24;2.80;99.90
35668;DHT22;22158;59.280;17.806;2022-10-31T01:13:25;2.80;99.90
35668;DHT22;22158;59.280;17.806;2022-10-31T01:15:56;2.80;99.90
35668;DHT22;22158;59.280;17.806;2022-10-31T01:18:22;2.80;99.90
35668;DHT22;22158;59.280;17.806;2022-10-31T01:20:57;2.90;99.90
35668;DHT22;22158;59.280;17.806;2022-10-31T01:23:23;2.90;99.90
35668;DHT22;22158;59.280;17.806;2022-10-31T01:25:49;2.90;99.90
35668;DHT22;22158;59.280;17.806;2022-10-31T01:28:15;2.90;99.90
35668;DHT22;22158;59.280;17.806;2022-10-31T01:30:40;3.00;99.90
35668;DHT22;22158;59.280;17.806;2022-10-31T01:33:06;3.00;99.90
35668;DHT22;22158;59.280;17.806;2022-10-31T01:35:32;3.00;99.90
35668;DHT22;22158;59.280;17.806;2022-10-31T01:37:57;3.00;99.90
35668;DHT22;22158;59.280;17.806;2022-10-31T01:40:23;3.00;99.90
35668;DHT22;22158;59.280;17.806;2022-10-31T01:42:48;3.00;99.90
35668;DHT22;22158;59.280;17.806;2022-10-31T01:45:15;3.00;99.90
35668;DHT22;22158;59.280;17.806;2022-10-31T01:47:46;3.00;99.90
35668;DHT22;22158;59.280;17.806;2022-10-31T01:50:21;3.00;99.90
35668;DHT22;22158;59.280;17.806;2022-10-31T01:52:49;3.00;99.90
35668;DHT22;22158;59.280;17.806;2022-10-31T01:55:28;3.00;99.90
35668;DHT22;22158;59.280;17.806;2022-10-31T01:57:58;3.00;99.90
35668;DHT22;22158;59.280;17.806;2022-10-31T02:00:25;3.00;99.90
35668;DHT22;22158;59.280;17.806;2022-10-31T02:02:51;3.00;99.90
35668;DHT22;22158;59.280;17.806;2022-10-31T02:05:22;3.10;99.90
35668;DHT22;22158;59.280;17.806;2022-10-31T02:08:03;3.10;99.90
35668;DHT22;22158;59.280;17.806;2022-10-31T02:10:32;3.20;99.90
35668;DHT22;22158;59.280;17.806;2022-10-31T02:13:00;3.20;99.90
35668;DHT22;22158;59.280;17.806;2022-10-31T02:15:27;3.20;99.90
35668;DHT22;22158;59.280;17.806;2022-10-31T02:17:53;3.20;99.90
35668;DHT22;22158;59.280;17.806;2022-10-31T02:20:21;3.30;99.90
35668;DHT22;22158;59.280;17.806;2022-10-31T02:26:08;3.30;99.90
35668;DHT22;22158;59.280;17.806;2022-10-31T02:34:17;3.40;99.90
35668;DHT22;22158;59.280;17.806;2022-10-31T02:36:52;3.50;99.90
35668;DHT22;22158;59.280;17.806;2022-10-31T02:39:40;3.50;99.90
35668;DHT22;22158;59.280;17.806;2022-10-31T02:42:21;3.60;99.90
35668;DHT22;22158;59.280;17.806;2022-10-31T02:47:49;3.70;99.90
35668;DHT22;22158;59.280;17.806;2022-10-31T02:50:27;3.70;99.90
35668;DHT22;22158;59.280;17.806;2022-10-31T02:52:54;3.70;99.90
35668;DHT22;22158;59.280;17.806;2022-10-31T02:57:48;3.80;99.90
35668;DHT22;22158;59.280;17.806;2022-10-31T03:00:15;3.80;99.90
35668;DHT22;22158;59.280;17.806;2022-10-31T03:08:23;4.10;99.90
35668;DHT22;22158;59.280;17.806;2022-10-31T03:10:55;4.20;99.90
35668;DHT22;22158;59.280;17.806;2022-10-31T03:15:53;4.30;99.90
35668;DHT22;22158;59.280;17.806;2022-10-31T03:18:29;4.40;99.90
35668;DHT22;22158;59.280;17.806;2022-10-31T03:21:14;4.50;99.90
35668;DHT22;22158;59.280;17.806;2022-10-31T03:23:44;4.60;99.90
35668;DHT22;22158;59.280;17.806;2022-10-31T03:26:12;4.70;99.90
35668;DHT22;22158;59.280;17.806;2022-10-31T03:28:52;4.80;99.90
35668;DHT22;22158;59.280;17.806;2022-10-31T03:31:22;4.90;99.90
35668;DHT22;22158;59.280;17.806;2022-10-31T03:33:49;5.10;99.90
35668;DHT22;22158;59.280;17.806;2022-10-31T03:36:18;5.30;99.90
35668;DHT22;22158;59.280;17.806;2022-10-31T03:38:45;5.40;99.90
35668;DHT22;22158;59.280;17.806;2022-10-31T03:41:18;5.60;99.90
35668;DHT22;22158;59.280;17.806;2022-10-31T03:43:52;5.60;99.90
35668;DHT22;22158;59.280;17.806;2022-10-31T03:46:18;5.80;99.90
35668;DHT22;22158;59.280;17.806;2022-10-31T03:48:44;5.90;99.90
35668;DHT22;22158;59.280;17.806;2022-10-31T03:51:22;6.00;99.90
35668;DHT22;22158;59.280;17.806;2022-10-31T03:56:36;6.10;99.90
35668;DHT22;22158;59.280;17.806;2022-10-31T03:59:07;6.20;99.90
35668;DHT22;22158;59.280;17.806;2022-10-31T04:01:38;6.20;99.90
35668;DHT22;22158;59.280;17.806;2022-10-31T04:04:06;6.30;99.90
35668;DHT22;22158;59.280;17.806;2022-10-31T04:06:34;6.30;99.90
35668;DHT22;22158;59.280;17.806;2022-10-31T04:09:04;6.30;99.90
35668;DHT22;22158;59.280;17.806;2022-10-31T04:11:37;6.50;99.90
35668;DHT22;22158;59.280;17.806;2022-10-31T04:14:05;6.50;99.90
35668;DHT22;22158;59.280;17.806;2022-10-31T04:16:32;6.60;99.90
35668;DHT22;22158;59.280;17.806;2022-10-31T04:18:58;6.60;99.90
35668;DHT22;22158;59.280;17.806;2022-10-31T04:21:28;6.70;99.90
35668;DHT22;22158;59.280;17.806;2022-10-31T04:23:54;6.70;99.90
35668;DHT22;22158;59.280;17.806;2022-10-31T04:26:20;6.80;99.90
35668;DHT22;22158;59.280;17.806;2022-10-31T04:28:45;6.90;99.90
35668;DHT22;22158;59.280;17.806;2022-10-31T04:31:12;7.00;99.90
35668;DHT22;22158;59.280;17.806;2022-10-31T04:33:38;6.90;99.90
35668;DHT22;22158;59.280;17.806;2022-10-31T04:36:04;7.00;99.90
35668;DHT22;22158;59.280;17.806;2022-10-31T04:38:32;7.00;99.90
35668;DHT22;22158;59.280;17.806;2022-10-31T04:40:58;7.00;99.90
35668;DHT22;22158;59.280;17.806;2022-10-31T04:43:24;7.10;99.90
35668;DHT22;22158;59.280;17.806;2022-10-31T04:45:50;7.20;99.90
35668;DHT22;22158;59.280;17.806;2022-10-31T04:48:15;7.20;99.90
35668;DHT22;22158;59.280;17.806;2022-10-31T04:50:41;7.30;99.90
35668;DHT22;22158;59.280;17.806;2022-10-31T04:53:07;7.30;99.90
35668;DHT22;22158;59.280;17.806;2022-10-31T04:55:32;7.30;99.90
35668;DHT22;22158;59.280;17.806;2022-10-31T04:57:58;7.30;99.90
35668;DHT22;22158;59.280;17.806;2022-10-31T05:00:24;7.30;99.90
35668;DHT22;22158;59.280;17.806;2022-10-31T05:02:57;7.30;99.90
35668;DHT22;22158;59.280;17.806;2022-10-31T05:05:25;7.40;99.90
35668;DHT22;22158;59.280;17.806;2022-10-31T05:07:52;7.40;99.90
35668;DHT22;22158;59.280;17.806;2022-10-31T05:10:21;7.40;99.90
35668;DHT22;22158;59.280;17.806;2022-10-31T05:12:52;7.50;99.90
35668;DHT22;22158;59.280;17.806;2022-10-31T05:15:18;7.40;99.90
35668;DHT22;22158;59.280;17.806;2022-10-31T05:17:44;7.50;99.90
35668;DHT22;22158;59.280;17.806;2022-10-31T05:20:11;7.50;99.90
35668;DHT22;22158;59.280;17.806;2022-10-31T05:22:37;7.50;99.90
35668;DHT22;22158;59.280;17.806;2022-10-31T05:25:07;7.50;99.90
35668;DHT22;22158;59.280;17.806;2022-10-31T05:27:32;7.60;99.90
35668;DHT22;22158;59.280;17.806;2022-10-31T05:29:58;7.50;99.90
35668;DHT22;22158;59.280;17.806;2022-10-31T05:32:23;7.50;99.90
35668;DHT22;22158;59.280;17.806;2022-10-31T05:34:49;7.60;99.90
35668;DHT22;22158;59.280;17.806;2022-10-31T05:37:15;7.60;99.90
35668;DHT22;22158;59.280;17.806;2022-10-31T05:39:40;7.60;99.90
35668;DHT22;22158;59.280;17.806;2022-10-31T05:42:06;7.60;99.90
35668;DHT22;22158;59.280;17.806;2022-10-31T05:44:31;7.70;99.90
35668;DHT22;22158;59.280;17.806;2022-10-31T05:46:57;7.70;99.90
35668;DHT22;22158;59.280;17.806;2022-10-31T05:49:23;7.70;99.90
35668;DHT22;22158;59.280;17.806;2022-10-31T05:51:48;7.80;99.90
35668;DHT22;22158;59.280;17.806;2022-10-31T05:54:14;7.70;99.90
35668;DHT22;22158;59.280;17.806;2022-10-31T05:56:40;7.70;99.90
35668;DHT22;22158;59.280;17.806;2022-10-31T05:59:05;7.80;99.90
35668;DHT22;22158;59.280;17.806;2022-10-31T06:01:31;7.80;99.90
35668;DHT22;22158;59.280;17.806;2022-10-31T06:03:56;7.90;99.90
35668;DHT22;22158;59.280;17.806;2022-10-31T06:06:22;7.90;99.90
35668;DHT22;22158;59.280;17.806;2022-10-31T06:08:48;7.90;99.90
35668;DHT22;22158;59.280;17.806;2022-10-31T06:11:13;7.90;99.90
35668;DHT22;22158;59.280;17.806;2022-10-31T06:13:39;7.90;99.90
35668;DHT22;22158;59.280;17.806;2022-10-31T06:16:05;8.00;99.90
35668;DHT22;22158;59.280;17.806;2022-10-31T06:18:30;8.00;99.90
35668;DHT22;22158;59.280;17.806;2022-10-31T06:20:56;8.10;99.90
35668;DHT22;22158;59.280;17.806;2022-10-31T06:23:21;8.20;99.90
35668;DHT22;22158;59.280;17.806;2022-10-31T06:25:51;8.20;99.90
35668;DHT22;22158;59.280;17.806;2022-10-31T06:28:16;8.30;99.90
35668;DHT22;22158;59.280;17.806;2022-10-31T06:30:42;8.40;99.90
35668;DHT22;22158;59.280;17.806;2022-10-31T06:33:08;8.40;99.90
35668;DHT22;22158;59.280;17.806;2022-10-31T06:35:33;8.40;99.90
35668;DHT22;22158;59.280;17.806;2022-10-31T06:37:59;8.40;99.90
35668;DHT22;22158;59.280;17.806;2022-10-31T06:40:25;8.50;99.90
35668;DHT22;22158;59.280;17.806;2022-10-31T06:43:09;8.50;99.90
35668;DHT22;22158;59.280;17.806;2022-10-31T06:45:36;8.50;99.90
35668;DHT22;22158;59.280;17.806;2022-10-31T06:48:02;8.50;99.90
35668;DHT22;22158;59.280;17.806;2022-10-31T06:50:28;8.60;99.90
35668;DHT22;22158;59.280;17.806;2022-10-31T06:52:56;8.60;99.90
35668;DHT22;22158;59.280;17.806;2022-10-31T06:55:23;8.70;99.90
35668;DHT22;22158;59.280;17.806;2022-10-31T06:57:59;8.70;99.90
35668;DHT22;22158;59.280;17.806;2022-10-31T07:00:26;8.80;99.90
35668;DHT22;22158;59.280;17.806;2022-10-31T07:02:57;8.80;99.90
35668;DHT22;22158;59.280;17.806;2022-10-31T07:05:24;8.90;99.90
35668;DHT22;22158;59.280;17.806;2022-10-31T07:07:59;8.80;99.90
35668;DHT22;22158;59.280;17.806;2022-10-31T07:10:27;8.80;99.90
35668;DHT22;22158;59.280;17.806;2022-10-31T07:13:02;8.80;99.90
35668;DHT22;22158;59.280;17.806;2022-10-31T07:15:29;8.80;99.90
35668;DHT22;22158;59.280;17.806;2022-10-31T07:18:02;8.80;99.90
35668;DHT22;22158;59.280;17.806;2022-10-31T07:20:29;8.80;99.90
35668;DHT22;22158;59.280;17.806;2022-10-31T07:22:54;8.90;99.90
35668;DHT22;22158;59.280;17.806;2022-10-31T07:25:20;8.90;99.90
35668;DHT22;22158;59.280;17.806;2022-10-31T07:27:46;8.90;99.90
35668;DHT22;22158;59.280;17.806;2022-10-31T07:30:13;9.00;99.90
35668;DHT22;22158;59.280;17.806;2022-10-31T07:32:40;9.10;99.90
35668;DHT22;22158;59.280;17.806;2022-10-31T07:35:14;9.10;99.90
35668;DHT22;22158;59.280;17.806;2022-10-31T07:37:40;9.10;99.90
35668;DHT22;22158;59.280;17.806;2022-10-31T07:40:07;9.20;99.90
35668;DHT22;22158;59.280;17.806;2022-10-31T07:42:42;9.10;99.90
35668;DHT22;22158;59.280;17.806;2022-10-31T07:45:10;9.20;99.90
35668;DHT22;22158;59.280;17.806;2022-10-31T07:47:46;9.20;99.90
35668;DHT22;22158;59.280;17.806;2022-10-31T07:50:16;9.20;99.90
35668;DHT22;22158;59.280;17.806;2022-10-31T07:52:42;9.30;99.90
35668;DHT22;22158;59.280;17.806;2022-10-31T07:55:09;9.30;99.90
35668;DHT22;22158;59.280;17.806;2022-10-31T07:57:35;9.30;99.90
35668;DHT22;22158;59.280;17.806;2022-10-31T08:00:09;9.30;99.90
35668;DHT22;22158;59.280;17.806;2022-10-31T08:02:35;9.40;99.90
35668;DHT22;22158;59.280;17.806;2022-10-31T08:05:01;9.40;99.90
35668;DHT22;22158;59.280;17.806;2022-10-31T08:07:29;9.40;99.90
35668;DHT22;22158;59.280;17.806;2022-10-31T08:09:55;9.40;99.90
35668;DHT22;22158;59.280;17.806;2022-10-31T08:12:21;9.40;99.90
35668;DHT22;22158;59.280;17.806;2022-10-31T08:14:47;9.40;99.90
35668;DHT22;22158;59.280;17.806;2022-10-31T08:17:12;9.50;99.90
35668;DHT22;22158;59.280;17.806;2022-10-31T08:19:38;9.50;99.90
35668;DHT22;22158;59.280;17.806;2022-10-31T08:22:04;9.50;99.90
35668;DHT22;22158;59.280;17.806;2022-10-31T08:24:29;9.60;99.90
35668;DHT22;22158;59.280;17.806;2022-10-31T08:26:55;9.50;99.90
35668;DHT22;22158;59.280;17.806;2022-10-31T08:29:21;9.50;99.90
35668;DHT22;22158;59.280;17.806;2022-10-31T08:31:46;9.50;99.90
35668;DHT22;22158;59.280;17.806;2022-10-31T08:34:12;9.50;99.90
35668;DHT22;22158;59.280;17.806;2022-10-31T08:36:38;9.50;99.90
35668;DHT22;22158;59.280;17.806;2022-10-31T08:39:03;9.50;99.90
35668;DHT22;22158;59.280;17.806;2022-10-31T08:41:29;9.50;99.90
35668;DHT22;22158;59.280;17.806;2022-10-31T08:43:55;9.60;99.90
35668;DHT22;22158;59.280;17.806;2022-10-31T08:46:21;9.60;99.90
35668;DHT22;22158;59.280;17.806;2022-10-31T08:48:50;9.60;99.90
35668;DHT22;22158;59.280;17.806;2022-10-31T08:51:15;9.70;99.90
35668;DHT22;22158;59.280;17.806;2022-10-31T08:53:41;9.70;99.90
35668;DHT22;22158;59.280;17.806;2022-10-31T08:56:07;9.70;99.90
35668;DHT22;22158;59.280;17.806;2022-10-31T08:58:32;9.80;99.90
35668;DHT22;22158;59.280;17.806;2022-10-31T09:01:00;9.80;99.90
35668;DHT22;22158;59.280;17.806;2022-10-31T09:03:28;9.80;99.90
35668;DHT22;22158;59.280;17.806;2022-10-31T09:05:57;9.90;99.90
35668;DHT22;22158;59.280;17.806;2022-10-31T09:08:23;9.90;99.90
35668;DHT22;22158;59.280;17.806;2022-10-31T09:10:49;9.90;99.90
35668;DHT22;22158;59.280;17.806;2022-10-31T09:13:20;9.90;99.90
35668;DHT22;22158;59.280;17.806;2022-10-31T09:15:47;9.90;99.90
35668;DHT22;22158;59.280;17.806;2022-10-31T09:18:15;9.90;99.90
35668;DHT22;22158;59.280;17.806;2022-10-31T09:20:42;9.90;99.90
35668;DHT22;22158;59.280;17.806;2022-10-31T09:23:18;10.00;99.90
35668;DHT22;22158;59.280;17.806;2022-10-31T09:25:44;10.00;99.90
35668;DHT22;22158;59.280;17.806;2022-10-31T09:28:12;10.10;99.90
35668;DHT22;22158;59.280;17.806;2022-10-31T09:30:39;10.10;99.90
35668;DHT22;22158;59.280;17.806;2022-10-31T09:33:09;10.10;99.90
35668;DHT22;22158;59.280;17.806;2022-10-31T09:35:36;10.10;99.90
35668;DHT22;22158;59.280;17.806;2022-10-31T09:38:12;10.10;99.90
35668;DHT22;22158;59.280;17.806;2022-10-31T09:40:40;10.10;99.90
35668;DHT22;22158;59.280;17.806;2022-10-31T09:51:43;10.40;99.90
35668;DHT22;22158;59.280;17.806;2022-10-31T09:54:10;10.40;99.90
35668;DHT22;22158;59.280;17.806;2022-10-31T09:56:37;10.40;99.90
35668;DHT22;22158;59.280;17.806;2022-10-31T09:59:05;10.40;99.90
35668;DHT22;22158;59.280;17.806;2022-10-31T10:01:55;10.40;99.90
35668;DHT22;22158;59.280;17.806;2022-10-31T10:04:30;10.40;99.90
35668;DHT22;22158;59.280;17.806;2022-10-31T10:06:58;10.40;99.90
35668;DHT22;22158;59.280;17.806;2022-10-31T10:09:27;10.50;99.90
35668;DHT22;22158;59.280;17.806;2022-10-31T10:12:06;10.50;99.90
35668;DHT22;22158;59.280;17.806;2022-10-31T10:22:43;10.50;99.90
35668;DHT22;22158;59.280;17.806;2022-10-31T10:30:22;10.40;99.90
35668;DHT22;22158;59.280;17.806;2022-10-31T10:32:58;10.50;99.90
35668;DHT22;22158;59.280;17.806;2022-10-31T10:35:34;10.60;99.90
35668;DHT22;22158;59.280;17.806;2022-10-31T10:38:57;10.60;99.90
35668;DHT22;22158;59.280;17.806;2022-10-31T10:40:58;10.60;99.90
35668;DHT22;22158;59.280;17.806;2022-10-31T10:43:33;10.70;99.90
35668;DHT22;22158;59.280;17.806;2022-10-31T10:54:18;10.90;99.90
35668;DHT22;22158;59.280;17.806;2022-10-31T10:59:26;11.00;99.90
35668;DHT22;22158;59.280;17.806;2022-10-31T11:01:52;11.10;99.90
35668;DHT22;22158;59.280;17.806;2022-10-31T11:04:33;11.20;99.90
35668;DHT22;22158;59.280;17.806;2022-10-31T11:07:06;11.20;99.90
35668;DHT22;22158;59.280;17.806;2022-10-31T11:09:33;11.30;99.90
35668;DHT22;22158;59.280;17.806;2022-10-31T11:12:00;11.30;99.90
35668;DHT22;22158;59.280;17.806;2022-10-31T11:14:31;11.40;99.90
35668;DHT22;22158;59.280;17.806;2022-10-31T11:17:16;11.50;99.90
35668;DHT22;22158;59.280;17.806;2022-10-31T11:19:42;11.50;99.90
35668;DHT22;22158;59.280;17.806;2022-10-31T11:22:15;11.60;99.90
35668;DHT22;22158;59.280;17.806;2022-10-31T11:24:42;11.70;99.90
35668;DHT22;22158;59.280;17.806;2022-10-31T11:27:15;11.80;99.90
35668;DHT22;22158;59.280;17.806;2022-10-31T11:29:40;11.90;99.90
35668;DHT22;22158;59.280;17.806;2022-10-31T11:32:21;12.00;99.90
35668;DHT22;22158;59.280;17.806;2022-10-31T11:34:57;12.00;99.90
35668;DHT22;22158;59.280;17.806;2022-10-31T11:37:26;12.10;99.90
35668;DHT22;22158;59.280;17.806;2022-10-31T11:40:05;12.00;99.90
35668;DHT22;22158;59.280;17.806;2022-10-31T11:42:41;12.00;99.90
35668;DHT22;22158;59.280;17.806;2022-10-31T11:45:16;12.00;99.90
35668;DHT22;22158;59.280;17.806;2022-10-31T11:47:45;12.00;99.90
35668;DHT22;22158;59.280;17.806;2022-10-31T11:50:20;12.00;99.90
35668;DHT22;22158;59.280;17.806;2022-10-31T11:52:46;12.20;99.90
35668;DHT22;22158;59.280;17.806;2022-10-31T11:57:49;12.50;99.90
35668;DHT22;22158;59.280;17.806;2022-10-31T12:05:58;12.80;99.90
35668;DHT22;22158;59.280;17.806;2022-10-31T12:08:34;12.80;99.90
35668;DHT22;22158;59.280;17.806;2022-10-31T12:16:39;13.00;99.90
35668;DHT22;22158;59.280;17.806;2022-10-31T12:20:05;13.00;99.90
35668;DHT22;22158;59.280;17.806;2022-10-31T12:26:08;13.00;99.90
35668;DHT22;22158;59.280;17.806;2022-10-31T12:34:12;13.10;99.90
35668;DHT22;22158;59.280;17.806;2022-10-31T12:41:58;13.30;99.90
35668;DHT22;22158;59.280;17.806;2022-10-31T12:57:35;13.30;99.90
35668;DHT22;22158;59.280;17.806;2022-10-31T13:00:10;13.40;99.90
35668;DHT22;22158;59.280;17.806;2022-10-31T13:02:42;13.50;99.90
35668;DHT22;22158;59.280;17.806;2022-10-31T13:07:52;13.50;99.90
35668;DHT22;22158;59.280;17.806;2022-10-31T13:10:26;13.50;99.90
35668;DHT22;22158;59.280;17.806;2022-10-31T13:13:00;13.40;99.90
35668;DHT22;22158;59.280;17.806;2022-10-31T13:15:31;13.30;99.90
35668;DHT22;22158;59.280;17.806;2022-10-31T13:18:00;13.30;99.90
35668;DHT22;22158;59.280;17.806;2022-10-31T13:20:40;13.30;99.90
35668;DHT22;22158;59.280;17.806;2022-10-31T13:23:27;13.30;99.90
35668;DHT22;22158;59.280;17.806;2022-10-31T13:25:58;13.30;99.90
35668;DHT22;22158;59.280;17.806;2022-10-31T13:28:47;13.20;99.90
35668;DHT22;22158;59.280;17.806;2022-10-31T13:31:14;13.20;99.90
35668;DHT22;22158;59.280;17.806;2022-10-31T13:34:44;13.20;99.90
35668;DHT22;22158;59.280;17.806;2022-10-31T13:42:25;13.10;99.90
35668;DHT22;22158;59.280;17.806;2022-10-31T13:44:55;13.10;99.90
35668;DHT22;22158;59.280;17.806;2022-10-31T13:47:31;13.20;99.90
35668;DHT22;22158;59.280;17.806;2022-10-31T13:50:28;13.20;99.90
35668;DHT22;22158;59.280;17.806;2022-10-31T13:53:36;13.20;99.90
35668;DHT22;22158;59.280;17.806;2022-10-31T13:56:11;13.20;99.90
35668;DHT22;22158;59.280;17.806;2022-10-31T13:58:40;13.20;99.90
35668;DHT22;22158;59.280;17.806;2022-10-31T14:03:40;13.10;99.90
35668;DHT22;22158;59.280;17.806;2022-10-31T14:06:08;13.10;99.90
35668;DHT22;22158;59.280;17.806;2022-10-31T14:08:37;13.10;99.90
35668;DHT22;22158;59.280;17.806;2022-10-31T14:11:07;13.10;99.90
35668;DHT22;22158;59.280;17.806;2022-10-31T14:13:52;13.10;99.90
35668;DHT22;22158;59.280;17.806;2022-10-31T14:16:24;13.10;99.90
35668;DHT22;22158;59.280;17.806;2022-10-31T14:19:04;13.10;99.90
35668;DHT22;22158;59.280;17.806;2022-10-31T14:21:40;13.10;99.90
35668;DHT22;22158;59.280;17.806;2022-10-31T14:26:58;13.10;99.90
35668;DHT22;22158;59.280;17.806;2022-10-31T14:29:30;13.00;99.90
35668;DHT22;22158;59.280;17.806;2022-10-31T14:34:42;13.00;99.90
35668;DHT22;22158;59.280;17.806;2022-10-31T14:53:01;12.80;99.90
35668;DHT22;22158;59.280;17.806;2022-10-31T14:55:28;12.70;99.90
35668;DHT22;22158;59.280;17.806;2022-10-31T14:58:01;12.70;99.90
35668;DHT22;22158;59.280;17.806;2022-10-31T15:00:28;12.70;99.90
35668;DHT22;22158;59.280;17.806;2022-10-31T15:05:29;12.60;99.90
35668;DHT22;22158;59.280;17.806;2022-10-31T15:07:56;12.40;99.90
35668;DHT22;22158;59.280;17.806;2022-10-31T15:10:29;12.40;99.90
35668;DHT22;22158;59.280;17.806;2022-10-31T15:12:55;12.40;99.90
35668;DHT22;22158;59.280;17.806;2022-10-31T15:15:26;12.30;99.90
35668;DHT22;22158;59.280;17.806;2022-10-31T15:17:58;12.20;99.90
35668;DHT22;22158;59.280;17.806;2022-10-31T15:20:29;12.10;99.90
35668;DHT22;22158;59.280;17.806;2022-10-31T15:22:56;12.20;99.90
35668;DHT22;22158;59.280;17.806;2022-10-31T15:25:24;12.10;99.90
35668;DHT22;22158;59.280;17.806;2022-10-31T15:27:52;12.00;99.90
35668;DHT22;22158;59.280;17.806;2022-10-31T15:30:26;11.90;99.90
35668;DHT22;22158;59.280;17.806;2022-10-31T15:32:52;11.80;99.90
35668;DHT22;22158;59.280;17.806;2022-10-31T15:35:28;11.80;99.90
35668;DHT22;22158;59.280;17.806;2022-10-31T15:37:55;11.70;99.90
35668;DHT22;22158;59.280;17.806;2022-10-31T15:40:25;11.60;99.90
35668;DHT22;22158;59.280;17.806;2022-10-31T15:43:00;11.60;99.90
35668;DHT22;22158;59.280;17.806;2022-10-31T15:45:28;11.50;99.90
35668;DHT22;22158;59.280;17.806;2022-10-31T15:48:14;11.50;99.90
35668;DHT22;22158;59.280;17.806;2022-10-31T15:50:47;11.40;99.90
35668;DHT22;22158;59.280;17.806;2022-10-31T15:53:17;11.40;99.90
35668;DHT22;22158;59.280;17.806;2022-10-31T15:56:03;11.30;99.90
35668;DHT22;22158;59.280;17.806;2022-10-31T15:58:32;11.30;99.90
35668;DHT22;22158;59.280;17.806;2022-10-31T16:01:04;11.30;99.90
35668;DHT22;22158;59.280;17.806;2022-10-31T16:03:32;11.20;99.90
35668;DHT22;22158;59.280;17.806;2022-10-31T16:06:03;11.10;99.90
35668;DHT22;22158;59.280;17.806;2022-10-31T16:10:57;11.00;99.90
35668;DHT22;22158;59.280;17.806;2022-10-31T16:13:35;11.00;99.90
35668;DHT22;22158;59.280;17.806;2022-10-31T16:16:12;11.00;99.90
35668;DHT22;22158;59.280;17.806;2022-10-31T16:18:40;10.90;99.90
35668;DHT22;22158;59.280;17.806;2022-10-31T16:21:07;10.90;99.90
35668;DHT22;22158;59.280;17.806;2022-10-31T16:23:33;10.90;99.90
35668;DHT22;22158;59.280;17.806;2022-10-31T16:25:59;10.90;99.90
35668;DHT22;22158;59.280;17.806;2022-10-31T16:28:26;10.90;99.90
35668;DHT22;22158;59.280;17.806;2022-10-31T16:30:54;10.90;99.90
35668;DHT22;22158;59.280;17.806;2022-10-31T16:33:31;10.80;99.90
35668;DHT22;22158;59.280;17.806;2022-10-31T16:35:59;10.80;99.90
35668;DHT22;22158;59.280;17.806;2022-10-31T16:38:26;10.70;99.90
35668;DHT22;22158;59.280;17.806;2022-10-31T16:40:52;10.70;99.90
35668;DHT22;22158;59.280;17.806;2022-10-31T16:43:19;10.70;99.90
35668;DHT22;22158;59.280;17.806;2022-10-31T16:45:49;10.60;99.90
35668;DHT22;22158;59.280;17.806;2022-10-31T16:48:17;10.60;99.90
35668;DHT22;22158;59.280;17.806;2022-10-31T16:50:45;10.60;99.90
35668;DHT22;22158;59.280;17.806;2022-10-31T16:53:12;10.50;99.90
35668;DHT22;22158;59.280;17.806;2022-10-31T16:55:56;10.60;99.90
35668;DHT22;22158;59.280;17.806;2022-10-31T16:58:28;10.50;99.90
35668;DHT22;22158;59.280;17.806;2022-10-31T17:00:55;10.50;99.90
35668;DHT22;22158;59.280;17.806;2022-10-31T17:03:21;10.60;99.90
35668;DHT22;22158;59.280;17.806;2022-10-31T17:05:47;10.70;99.90
35668;DHT22;22158;59.280;17.806;2022-10-31T17:08:13;10.70;99.90
35668;DHT22;22158;59.280;17.806;2022-10-31T17:10:40;10.70;99.90
35668;DHT22;22158;59.280;17.806;2022-10-31T17:13:10;10.70;99.90
35668;DHT22;22158;59.280;17.806;2022-10-31T17:15:43;10.80;99.90
35668;DHT22;22158;59.280;17.806;2022-10-31T17:18:14;10.90;99.90
35668;DHT22;22158;59.280;17.806;2022-10-31T17:20:40;10.90;99.90
35668;DHT22;22158;59.280;17.806;2022-10-31T17:23:09;11.00;99.90
35668;DHT22;22158;59.280;17.806;2022-10-31T17:25:35;11.00;99.90
35668;DHT22;22158;59.280;17.806;2022-10-31T17:28:01;11.10;99.90
35668;DHT22;22158;59.280;17.806;2022-10-31T17:30:27;11.10;99.90
35668;DHT22;22158;59.280;17.806;2022-10-31T17:32:52;11.10;99.90
35668;DHT22;22158;59.280;17.806;2022-10-31T17:35:20;11.20;99.90
35668;DHT22;22158;59.280;17.806;2022-10-31T17:37:47;11.20;99.90
35668;DHT22;22158;59.280;17.806;2022-10-31T17:40:15;11.20;99.90
35668;DHT22;22158;59.280;17.806;2022-10-31T17:42:41;11.20;99.90
35668;DHT22;22158;59.280;17.806;2022-10-31T17:45:07;11.20;99.90
35668;DHT22;22158;59.280;17.806;2022-10-31T17:47:34;11.20;99.90
35668;DHT22;22158;59.280;17.806;2022-10-31T17:50:00;11.20;99.90
35668;DHT22;22158;59.280;17.806;2022-10-31T17:52:26;11.20;99.90
35668;DHT22;22158;59.280;17.806;2022-10-31T17:54:52;11.20;99.90
35668;DHT22;22158;59.280;17.806;2022-10-31T17:57:17;11.20;99.90